sensor_id;sensor_type;location;lat;lon;timestamp;temperature;humidity
6439;DHT22;3252;52.540;13.290;2023-02-28T06:52:00;-0.90;99.90
6439;DHT22;3252;52.540;13.290;2023-02-28T06:54:05;-0.80;99.90
6439;DHT22;3252;52.540;13.290;2023-02-28T06:56:13;-0.60;99.90
6439;DHT22;3252;52.540;13.290;2023-02-28T06:58:16;-0.50;99.90
6439;DHT22;3252;52.540;13.290;2023-02-28T07:00:22;-0.40;99.90
6439;DHT22;3252;52.540;13.290;2023-02-28T07:02:25;-0.30;99.90
6439;DHT22;3252;52.540;13.290;2023-02-28T07:04:28;-0.20;99.90
6439;DHT22;3252;52.540;13.290;2023-02-28T07:06:30;-0.20;99.90
6439;DHT22;3252;52.540;13.290;2023-02-28T07:08:35;-0.10;99.90
6439;DHT22;3252;52.540;13.290;2023-02-28T07:10:38;0.10;99.90
6439;DHT22;3252;52.540;13.290;2023-02-28T07:12:40;0.30;99.90
6439;DHT22;3252;52.540;13.290;2023-02-28T07:14:42;0.40;99.90
6439;DHT22;3252;52.540;13.290;2023-02-28T07:16:44;0.50;99.90
6439;DHT22;3252;52.540;13.290;2023-02-28T07:18:47;0.40;99.90
6439;DHT22;3252;52.540;13.290;2023-02-28T07:20:50;0.40;99.90
6439;DHT22;3252;52.540;13.290;2023-02-28T07:22:52;0.40;99.90
6439;DHT22;3252;52.540;13.290;2023-02-28T07:24:58;0.40;99.90
6439;DHT22;3252;52.540;13.290;2023-02-28T07:27:01;0.50;99.90
6439;DHT22;3252;52.540;13.290;2023-02-28T07:29:03;0.60;99.90
6439;DHT22;3252;52.540;13.290;2023-02-28T07:31:06;0.70;99.90
6439;DHT22;3252;52.540;13.290;2023-02-28T07:33:18;0.70;99.90
6439;DHT22;3252;52.540;13.290;2023-02-28T07:35:20;0.70;99.90
6439;DHT22;3252;52.540;13.290;2023-02-28T07:37:22;0.80;99.90
6439;DHT22;3252;52.540;13.290;2023-02-28T07:39:26;0.90;99.90
6439;DHT22;3252;52.540;13.290;2023-02-28T07:41:29;1.00;99.90
6439;DHT22;3252;52.540;13.290;2023-02-28T07:43:35;1.10;99.90
6439;DHT22;3252;52.540;13.290;2023-02-28T07:45:37;1.30;99.90
6439;DHT22;3252;52.540;13.290;2023-02-28T07:47:41;1.40;99.90
6439;DHT22;3252;52.540;13.290;2023-02-28T07:49:45;1.50;99.90
6439;DHT22;3252;52.540;13.290;2023-02-28T07:51:47;1.60;99.90
6439;DHT22;3252;52.540;13.290;2023-02-28T07:53:58;1.70;99.90
6439;DHT22;3252;52.540;13.290;2023-02-28T07:56:01;2.00;99.90
6439;DHT22;3252;52.540;13.290;2023-02-28T07:58:06;2.30;99.90
6439;DHT22;3252;52.540;13.290;2023-02-28T08:00:10;2.60;99.90
6439;DHT22;3252;52.540;13.290;2023-02-28T08:02:18;3.10;99.90
6439;DHT22;3252;52.540;13.290;2023-02-28T08:04:21;3.50;99.90
6439;DHT22;3252;52.540;13.290;2023-02-28T08:06:25;3.60;99.90
6439;DHT22;3252;52.540;13.290;2023-02-28T08:08:28;3.50;99.90
6439;DHT22;3252;52.540;13.290;2023-02-28T08:10:32;3.70;99.90
6439;DHT22;3252;52.540;13.290;2023-02-28T08:13:02;3.70;99.90
6439;DHT22;3252;52.540;13.290;2023-02-28T08:15:07;3.90;99.90
6439;DHT22;3252;52.540;13.290;2023-02-28T08:17:10;4.00;99.90
6439;DHT22;3252;52.540;13.290;2023-02-28T08:19:12;4.00;99.90
6439;DHT22;3252;52.540;13.290;2023-02-28T08:21:14;4.00;99.90
6439;DHT22;3252;52.540;13.290;2023-02-28T08:23:16;4.00;99.90
6439;DHT22;3252;52.540;13.290;2023-02-28T08:25:19;4.50;99.90
6439;DHT22;3252;52.540;13.290;2023-02-28T08:27:21;5.20;99.90
6439;DHT22;3252;52.540;13.290;2023-02-28T08:29:24;5.70;99.90
6439;DHT22;3252;52.540;13.290;2023-02-28T08:31:28;5.80;99.60
6439;DHT22;3252;52.540;13.290;2023-02-28T08:33:30;5.80;99.60
6439;DHT22;3252;52.540;13.290;2023-02-28T08:35:32;5.90;98.60
6439;DHT22;3252;52.540;13.290;2023-02-28T08:37:37;5.90;87.60
6439;DHT22;3252;52.540;13.290;2023-02-28T08:39:39;6.50;82.60
6439;DHT22;3252;52.540;13.290;2023-02-28T08:41:42;6.70;68.20
6439;DHT22;3252;52.540;13.290;2023-02-28T08:43:45;7.40;60.50
6439;DHT22;3252;52.540;13.290;2023-02-28T08:45:47;7.80;53.70
6439;DHT22;3252;52.540;13.290;2023-02-28T08:47:55;8.20;50.30
6439;DHT22;3252;52.540;13.290;2023-02-28T08:49:58;9.00;48.00
6439;DHT22;3252;52.540;13.290;2023-02-28T08:52:00;9.40;46.30
6439;DHT22;3252;52.540;13.290;2023-02-28T08:54:02;10.20;43.40
6439;DHT22;3252;52.540;13.290;2023-02-28T08:56:06;11.30;41.80
6439;DHT22;3252;52.540;13.290;2023-02-28T08:58:09;11.30;39.80
6439;DHT22;3252;52.540;13.290;2023-02-28T09:00:12;11.10;37.80
6439;DHT22;3252;52.540;13.290;2023-02-28T09:02:15;11.10;36.90
6439;DHT22;3252;52.540;13.290;2023-02-28T09:04:19;10.20;35.70
6439;DHT22;3252;52.540;13.290;2023-02-28T09:06:23;10.20;36.40
6439;DHT22;3252;52.540;13.290;2023-02-28T09:08:26;9.80;36.80
6439;DHT22;3252;52.540;13.290;2023-02-28T09:10:29;9.90;37.30
6439;DHT22;3252;52.540;13.290;2023-02-28T09:12:33;10.30;36.70
6439;DHT22;3252;52.540;13.290;2023-02-28T09:14:36;10.20;37.30
6439;DHT22;3252;52.540;13.290;2023-02-28T09:16:38;9.70;37.20
6439;DHT22;3252;52.540;13.290;2023-02-28T09:18:41;9.70;36.60
6439;DHT22;3252;52.540;13.290;2023-02-28T09:20:45;10.80;34.90
6439;DHT22;3252;52.540;13.290;2023-02-28T09:22:47;12.60;33.90
6439;DHT22;3252;52.540;13.290;2023-02-28T09:24:49;13.70;32.70
6439;DHT22;3252;52.540;13.290;2023-02-28T09:26:51;14.90;32.50
6439;DHT22;3252;52.540;13.290;2023-02-28T09:28:54;15.80;30.40
6439;DHT22;3252;52.540;13.290;2023-02-28T09:30:57;16.10;29.60
6439;DHT22;3252;52.540;13.290;2023-02-28T09:32:59;14.80;28.90
6439;DHT22;3252;52.540;13.290;2023-02-28T09:35:01;14.00;29.30
6439;DHT22;3252;52.540;13.290;2023-02-28T09:37:05;12.20;29.80
6439;DHT22;3252;52.540;13.290;2023-02-28T09:39:07;10.20;31.30
6439;DHT22;3252;52.540;13.290;2023-02-28T09:41:14;8.70;33.90
6439;DHT22;3252;52.540;13.290;2023-02-28T09:43:19;8.00;35.50
6439;DHT22;3252;52.540;13.290;2023-02-28T09:45:26;7.20;36.60
6439;DHT22;3252;52.540;13.290;2023-02-28T09:47:32;6.90;37.80
6439;DHT22;3252;52.540;13.290;2023-02-28T09:49:40;7.00;38.40
6439;DHT22;3252;52.540;13.290;2023-02-28T09:51:56;6.90;38.80
6439;DHT22;3252;52.540;13.290;2023-02-28T09:54:05;6.70;39.70
6439;DHT22;3252;52.540;13.290;2023-02-28T09:56:10;6.50;40.20
6439;DHT22;3252;52.540;13.290;2023-02-28T09:58:28;5.80;40.90
6439;DHT22;3252;52.540;13.290;2023-02-28T10:00:34;5.40;41.50
6439;DHT22;3252;52.540;13.290;2023-02-28T10:02:50;5.50;43.00
6439;DHT22;3252;52.540;13.290;2023-02-28T10:04:56;5.40;42.50
6439;DHT22;3252;52.540;13.290;2023-02-28T10:07:04;5.30;42.60
6439;DHT22;3252;52.540;13.290;2023-02-28T10:09:13;5.40;43.90
6439;DHT22;3252;52.540;13.290;2023-02-28T10:11:16;5.40;44.40
6439;DHT22;3252;52.540;13.290;2023-02-28T10:13:26;5.40;43.70
6439;DHT22;3252;52.540;13.290;2023-02-28T10:15:34;5.30;44.10
6439;DHT22;3252;52.540;13.290;2023-02-28T10:17:39;5.40;46.30
6439;DHT22;3252;52.540;13.290;2023-02-28T10:19:47;5.20;45.30
6439;DHT22;3252;52.540;13.290;2023-02-28T10:21:56;5.30;46.20
6439;DHT22;3252;52.540;13.290;2023-02-28T10:24:05;5.40;47.50
6439;DHT22;3252;52.540;13.290;2023-02-28T10:26:16;5.50;47.70
6439;DHT22;3252;52.540;13.290;2023-02-28T10:28:19;5.40;46.30
6439;DHT22;3252;52.540;13.290;2023-02-28T10:30:21;5.10;47.30
6439;DHT22;3252;52.540;13.290;2023-02-28T10:32:26;5.10;47.50
6439;DHT22;3252;52.540;13.290;2023-02-28T10:34:29;5.20;47.10
6439;DHT22;3252;52.540;13.290;2023-02-28T10:36:32;5.30;48.00
6439;DHT22;3252;52.540;13.290;2023-02-28T10:38:46;5.80;48.30
6439;DHT22;3252;52.540;13.290;2023-02-28T10:41:04;7.00;44.40
6439;DHT22;3252;52.540;13.290;2023-02-28T10:43:20;7.70;42.30
6439;DHT22;3252;52.540;13.290;2023-02-28T10:45:23;8.70;41.10
6439;DHT22;3252;52.540;13.290;2023-02-28T10:47:25;9.90;39.00
6439;DHT22;3252;52.540;13.290;2023-02-28T10:49:29;11.80;36.70
6439;DHT22;3252;52.540;13.290;2023-02-28T10:51:36;14.20;34.40
6439;DHT22;3252;52.540;13.290;2023-02-28T10:53:47;15.50;30.80
6439;DHT22;3252;52.540;13.290;2023-02-28T10:55:56;16.10;28.90
6439;DHT22;3252;52.540;13.290;2023-02-28T10:57:59;16.90;28.60
6439;DHT22;3252;52.540;13.290;2023-02-28T11:00:15;17.70;28.40
6439;DHT22;3252;52.540;13.290;2023-02-28T11:02:31;18.80;27.20
6439;DHT22;3252;52.540;13.290;2023-02-28T11:04:35;18.70;26.00
6439;DHT22;3252;52.540;13.290;2023-02-28T11:06:39;16.40;26.00
6439;DHT22;3252;52.540;13.290;2023-02-28T11:08:51;16.10;27.70
6439;DHT22;3252;52.540;13.290;2023-02-28T11:10:55;16.10;27.50
6439;DHT22;3252;52.540;13.290;2023-02-28T11:12:58;15.80;27.70
6439;DHT22;3252;52.540;13.290;2023-02-28T11:15:02;14.60;27.30
6439;DHT22;3252;52.540;13.290;2023-02-28T11:17:14;12.20;28.70
6439;DHT22;3252;52.540;13.290;2023-02-28T11:19:25;12.40;30.20
6439;DHT22;3252;52.540;13.290;2023-02-28T11:21:30;14.80;29.60
6439;DHT22;3252;52.540;13.290;2023-02-28T11:23:36;13.90;28.30
6439;DHT22;3252;52.540;13.290;2023-02-28T11:25:47;15.60;29.10
6439;DHT22;3252;52.540;13.290;2023-02-28T11:27:52;19.20;27.80
6439;DHT22;3252;52.540;13.290;2023-02-28T11:29:54;22.10;26.40
6439;DHT22;3252;52.540;13.290;2023-02-28T11:32:13;23.20;25.20
6439;DHT22;3252;52.540;13.290;2023-02-28T11:34:24;23.30;25.20
6439;DHT22;3252;52.540;13.290;2023-02-28T11:36:30;21.20;22.90
6439;DHT22;3252;52.540;13.290;2023-02-28T11:38:34;18.60;23.70
6439;DHT22;3252;52.540;13.290;2023-02-28T11:40:43;17.50;25.10
6439;DHT22;3252;52.540;13.290;2023-02-28T11:42:55;17.90;25.30
6439;DHT22;3252;52.540;13.290;2023-02-28T11:45:11;18.20;25.40
6439;DHT22;3252;52.540;13.290;2023-02-28T11:47:21;18.40;24.90
6439;DHT22;3252;52.540;13.290;2023-02-28T11:49:33;20.30;25.10
6439;DHT22;3252;52.540;13.290;2023-02-28T11:51:44;22.30;24.20
6439;DHT22;3252;52.540;13.290;2023-02-28T11:54:16;18.00;24.00
6439;DHT22;3252;52.540;13.290;2023-02-28T11:56:26;18.40;24.90
6439;DHT22;3252;52.540;13.290;2023-02-28T11:58:38;20.40;24.80
6439;DHT22;3252;52.540;13.290;2023-02-28T12:00:57;19.80;23.60
6439;DHT22;3252;52.540;13.290;2023-02-28T12:03:15;17.60;24.10
6439;DHT22;3252;52.540;13.290;2023-02-28T12:05:24;18.70;24.50
6439;DHT22;3252;52.540;13.290;2023-02-28T12:07:37;19.50;24.30
6439;DHT22;3252;52.540;13.290;2023-02-28T12:09:52;22.20;24.10
6439;DHT22;3252;52.540;13.290;2023-02-28T12:12:00;23.70;22.80
6439;DHT22;3252;52.540;13.290;2023-02-28T12:14:25;23.60;21.90
6439;DHT22;3252;52.540;13.290;2023-02-28T12:16:40;23.30;22.10
6439;DHT22;3252;52.540;13.290;2023-02-28T12:19:00;24.00;23.00
6439;DHT22;3252;52.540;13.290;2023-02-28T12:21:13;24.30;22.30
6439;DHT22;3252;52.540;13.290;2023-02-28T12:23:42;20.80;21.60
6439;DHT22;3252;52.540;13.290;2023-02-28T12:25:58;21.50;22.90
6439;DHT22;3252;52.540;13.290;2023-02-28T12:28:03;21.20;22.70
6439;DHT22;3252;52.540;13.290;2023-02-28T12:30:14;20.90;23.00
6439;DHT22;3252;52.540;13.290;2023-02-28T12:32:23;19.50;23.20
6439;DHT22;3252;52.540;13.290;2023-02-28T12:34:33;17.60;23.20
6439;DHT22;3252;52.540;13.290;2023-02-28T12:36:38;19.60;24.60
6439;DHT22;3252;52.540;13.290;2023-02-28T12:38:44;20.30;23.90
6439;DHT22;3252;52.540;13.290;2023-02-28T12:40:51;20.10;23.30
6439;DHT22;3252;52.540;13.290;2023-02-28T12:42:58;20.80;23.70
6439;DHT22;3252;52.540;13.290;2023-02-28T12:45:04;20.60;23.10
6439;DHT22;3252;52.540;13.290;2023-02-28T12:47:13;21.30;22.70
6439;DHT22;3252;52.540;13.290;2023-02-28T12:49:17;21.80;23.10
6439;DHT22;3252;52.540;13.290;2023-02-28T12:51:23;22.30;22.80
6439;DHT22;3252;52.540;13.290;2023-02-28T12:53:29;23.20;23.00
6439;DHT22;3252;52.540;13.290;2023-02-28T12:55:38;23.60;22.90
6439;DHT22;3252;52.540;13.290;2023-02-28T12:57:49;22.80;22.30
6439;DHT22;3252;52.540;13.290;2023-02-28T12:59:55;21.60;22.30
6439;DHT22;3252;52.540;13.290;2023-02-28T13:02:33;23.80;23.10
6439;DHT22;3252;52.540;13.290;2023-02-28T13:05:04;22.10;22.20
6439;DHT22;3252;52.540;13.290;2023-02-28T13:07:32;22.70;21.90
6439;DHT22;3252;52.540;13.290;2023-02-28T13:09:37;21.70;22.80
6439;DHT22;3252;52.540;13.290;2023-02-28T13:11:42;19.90;23.00
6439;DHT22;3252;52.540;13.290;2023-02-28T13:13:45;19.60;23.50
6439;DHT22;3252;52.540;13.290;2023-02-28T13:15:59;16.70;23.50
6439;DHT22;3252;52.540;13.290;2023-02-28T13:18:02;15.40;25.00
6439;DHT22;3252;52.540;13.290;2023-02-28T13:20:13;14.60;26.00
6439;DHT22;3252;52.540;13.290;2023-02-28T13:22:20;13.30;26.80
6439;DHT22;3252;52.540;13.290;2023-02-28T13:24:42;12.50;27.80
6439;DHT22;3252;52.540;13.290;2023-02-28T13:29:34;11.60;29.20
6439;DHT22;3252;52.540;13.290;2023-02-28T13:34:16;10.50;30.40
6439;DHT22;3252;52.540;13.290;2023-02-28T13:36:27;10.20;31.20
6439;DHT22;3252;52.540;13.290;2023-02-28T13:38:37;9.40;32.80
6439;DHT22;3252;52.540;13.290;2023-02-28T13:40:41;9.40;34.60
6439;DHT22;3252;52.540;13.290;2023-02-28T13:42:47;9.40;36.10
6439;DHT22;3252;52.540;13.290;2023-02-28T13:45:23;9.30;36.60
6439;DHT22;3252;52.540;13.290;2023-02-28T13:47:29;9.20;36.50
6439;DHT22;3252;52.540;13.290;2023-02-28T13:49:33;8.50;35.70
6439;DHT22;3252;52.540;13.290;2023-02-28T13:51:40;8.50;36.40
6439;DHT22;3252;52.540;13.290;2023-02-28T13:53:56;8.20;36.20
6439;DHT22;3252;52.540;13.290;2023-02-28T13:56:07;8.00;37.10
6439;DHT22;3252;52.540;13.290;2023-02-28T14:01:03;7.30;37.00
6439;DHT22;3252;52.540;13.290;2023-02-28T14:03:31;7.10;37.30
6439;DHT22;3252;52.540;13.290;2023-02-28T14:05:37;6.90;38.20
6439;DHT22;3252;52.540;13.290;2023-02-28T14:07:45;6.60;38.40
6439;DHT22;3252;52.540;13.290;2023-02-28T14:09:56;6.60;38.50
6439;DHT22;3252;52.540;13.290;2023-02-28T14:14:54;6.70;38.60
6439;DHT22;3252;52.540;13.290;2023-02-28T14:16:58;6.70;38.60
6439;DHT22;3252;52.540;13.290;2023-02-28T14:19:02;6.70;39.60
6439;DHT22;3252;52.540;13.290;2023-02-28T14:21:21;6.60;38.90
6439;DHT22;3252;52.540;13.290;2023-02-28T14:23:57;6.70;38.80
6439;DHT22;3252;52.540;13.290;2023-02-28T14:26:13;6.70;39.50
6439;DHT22;3252;52.540;13.290;2023-02-28T14:28:23;6.70;39.80
6439;DHT22;3252;52.540;13.290;2023-02-28T14:30:52;6.50;40.00
6439;DHT22;3252;52.540;13.290;2023-02-28T14:33:03;6.60;40.60
6439;DHT22;3252;52.540;13.290;2023-02-28T14:35:20;6.50;41.10
6439;DHT22;3252;52.540;13.290;2023-02-28T14:37:27;6.40;40.60
6439;DHT22;3252;52.540;13.290;2023-02-28T14:39:31;6.40;40.70
6439;DHT22;3252;52.540;13.290;2023-02-28T14:41:42;6.10;40.70
6439;DHT22;3252;52.540;13.290;2023-02-28T14:43:54;6.20;41.30
6439;DHT22;3252;52.540;13.290;2023-02-28T14:46:01;6.20;41.20
6439;DHT22;3252;52.540;13.290;2023-02-28T14:48:09;6.20;41.50
6439;DHT22;3252;52.540;13.290;2023-02-28T14:50:18;6.20;41.80
6439;DHT22;3252;52.540;13.290;2023-02-28T14:52:22;6.20;42.20
6439;DHT22;3252;52.540;13.290;2023-02-28T14:54:25;6.20;42.20
6439;DHT22;3252;52.540;13.290;2023-02-28T14:56:32;6.30;41.70
6439;DHT22;3252;52.540;13.290;2023-02-28T14:58:37;6.30;42.20
6439;DHT22;3252;52.540;13.290;2023-02-28T15:00:47;6.30;42.00
6439;DHT22;3252;52.540;13.290;2023-02-28T15:02:49;6.30;41.90
6439;DHT22;3252;52.540;13.290;2023-02-28T15:04:57;6.30;42.10
6439;DHT22;3252;52.540;13.290;2023-02-28T15:07:09;6.40;41.50
6439;DHT22;3252;52.540;13.290;2023-02-28T15:09:16;6.20;41.60
6439;DHT22;3252;52.540;13.290;2023-02-28T15:11:20;6.30;41.10
6439;DHT22;3252;52.540;13.290;2023-02-28T15:13:23;6.30;41.10
6439;DHT22;3252;52.540;13.290;2023-02-28T15:15:43;6.20;41.30
6439;DHT22;3252;52.540;13.290;2023-02-28T15:17:51;6.30;41.40
6439;DHT22;3252;52.540;13.290;2023-02-28T15:19:55;6.30;41.80
6439;DHT22;3252;52.540;13.290;2023-02-28T15:22:01;6.30;41.90
6439;DHT22;3252;52.540;13.290;2023-02-28T15:24:07;6.20;42.00
6439;DHT22;3252;52.540;13.290;2023-02-28T15:26:14;6.10;42.10
6439;DHT22;3252;52.540;13.290;2023-02-28T15:28:22;6.10;41.80
6439;DHT22;3252;52.540;13.290;2023-02-28T15:30:27;6.00;41.50
6439;DHT22;3252;52.540;13.290;2023-02-28T15:32:33;6.00;41.50
6439;DHT22;3252;52.540;13.290;2023-02-28T15:34:37;6.00;41.60
6439;DHT22;3252;52.540;13.290;2023-02-28T15:36:39;6.00;41.70
6439;DHT22;3252;52.540;13.290;2023-02-28T15:38:42;6.00;41.90
6439;DHT22;3252;52.540;13.290;2023-02-28T15:40:49;6.00;42.40
6439;DHT22;3252;52.540;13.290;2023-02-28T15:43:06;6.00;42.50
6439;DHT22;3252;52.540;13.290;2023-02-28T15:45:28;6.00;42.30
6439;DHT22;3252;52.540;13.290;2023-02-28T15:47:34;5.90;42.40
6439;DHT22;3252;52.540;13.290;2023-02-28T15:49:44;5.90;42.60
6439;DHT22;3252;52.540;13.290;2023-02-28T15:51:49;5.90;42.70
6439;DHT22;3252;52.540;13.290;2023-02-28T15:53:56;5.90;42.80
6439;DHT22;3252;52.540;13.290;2023-02-28T15:56:02;5.90;43.50
6439;DHT22;3252;52.540;13.290;2023-02-28T15:58:05;5.90;43.40
6439;DHT22;3252;52.540;13.290;2023-02-28T16:00:12;5.90;43.20
6439;DHT22;3252;52.540;13.290;2023-02-28T16:02:17;5.90;43.70
6439;DHT22;3252;52.540;13.290;2023-02-28T16:04:21;5.90;43.40
6439;DHT22;3252;52.540;13.290;2023-02-28T16:06:38;5.80;43.40
6439;DHT22;3252;52.540;13.290;2023-02-28T16:08:44;5.80;43.50
6439;DHT22;3252;52.540;13.290;2023-02-28T16:10:52;5.80;43.90
6439;DHT22;3252;52.540;13.290;2023-02-28T16:12:57;5.80;44.60
6439;DHT22;3252;52.540;13.290;2023-02-28T16:15:02;5.80;44.20
6439;DHT22;3252;52.540;13.290;2023-02-28T16:17:07;5.80;44.00
6439;DHT22;3252;52.540;13.290;2023-02-28T16:19:15;5.80;44.20
6439;DHT22;3252;52.540;13.290;2023-02-28T16:21:19;5.80;44.30
6439;DHT22;3252;52.540;13.290;2023-02-28T16:23:22;5.80;44.60
6439;DHT22;3252;52.540;13.290;2023-02-28T16:25:32;5.80;45.20
6439;DHT22;3252;52.540;13.290;2023-02-28T16:27:37;5.70;45.30
6439;DHT22;3252;52.540;13.290;2023-02-28T16:29:40;5.70;45.20
6439;DHT22;3252;52.540;13.290;2023-02-28T16:31:43;5.70;45.40
6439;DHT22;3252;52.540;13.290;2023-02-28T16:33:46;5.70;45.60
6439;DHT22;3252;52.540;13.290;2023-02-28T16:35:48;5.60;45.80
6439;DHT22;3252;52.540;13.290;2023-02-28T16:37:52;5.60;46.70
6439;DHT22;3252;52.540;13.290;2023-02-28T16:39:55;5.60;46.90
6439;DHT22;3252;52.540;13.290;2023-02-28T16:41:57;5.60;46.70
6439;DHT22;3252;52.540;13.290;2023-02-28T16:44:02;5.60;46.80
6439;DHT22;3252;52.540;13.290;2023-02-28T16:46:04;5.50;47.60
6439;DHT22;3252;52.540;13.290;2023-02-28T16:48:08;5.50;48.60
6439;DHT22;3252;52.540;13.290;2023-02-28T16:50:16;5.50;50.00
6439;DHT22;3252;52.540;13.290;2023-02-28T16:52:18;5.40;50.60
6439;DHT22;3252;52.540;13.290;2023-02-28T16:54:22;5.40;52.60
6439;DHT22;3252;52.540;13.290;2023-02-28T16:56:25;5.30;53.80
6439;DHT22;3252;52.540;13.290;2023-02-28T16:58:28;5.20;54.70
6439;DHT22;3252;52.540;13.290;2023-02-28T17:00:31;5.20;60.10
6439;DHT22;3252;52.540;13.290;2023-02-28T17:02:34;5.10;60.80
6439;DHT22;3252;52.540;13.290;2023-02-28T17:04:37;5.00;64.40
6439;DHT22;3252;52.540;13.290;2023-02-28T17:06:39;4.90;68.00
6439;DHT22;3252;52.540;13.290;2023-02-28T17:08:41;4.80;67.70
6439;DHT22;3252;52.540;13.290;2023-02-28T17:10:45;4.80;66.30
6439;DHT22;3252;52.540;13.290;2023-02-28T17:12:49;4.70;65.20
6439;DHT22;3252;52.540;13.290;2023-02-28T17:14:52;4.60;66.70
6439;DHT22;3252;52.540;13.290;2023-02-28T17:16:54;4.50;69.30
6439;DHT22;3252;52.540;13.290;2023-02-28T17:18:58;4.40;69.20
6439;DHT22;3252;52.540;13.290;2023-02-28T17:21:01;4.40;69.70
6439;DHT22;3252;52.540;13.290;2023-02-28T17:23:04;4.30;70.70
6439;DHT22;3252;52.540;13.290;2023-02-28T17:25:08;4.30;77.20
6439;DHT22;3252;52.540;13.290;2023-02-28T17:27:13;4.30;79.90
6439;DHT22;3252;52.540;13.290;2023-02-28T17:29:17;4.20;77.90
6439;DHT22;3252;52.540;13.290;2023-02-28T17:31:19;4.10;77.80
6439;DHT22;3252;52.540;13.290;2023-02-28T17:33:22;4.10;79.30
6439;DHT22;3252;52.540;13.290;2023-02-28T17:35:24;4.00;78.70
6439;DHT22;3252;52.540;13.290;2023-02-28T17:37:27;4.00;77.50
6439;DHT22;3252;52.540;13.290;2023-02-28T17:39:30;3.90;77.80
6439;DHT22;3252;52.540;13.290;2023-02-28T17:41:32;3.90;78.00
6439;DHT22;3252;52.540;13.290;2023-02-28T17:43:36;3.80;83.30
6439;DHT22;3252;52.540;13.290;2023-02-28T17:45:38;3.80;81.90
6439;DHT22;3252;52.540;13.290;2023-02-28T17:47:42;3.70;82.30
6439;DHT22;3252;52.540;13.290;2023-02-28T17:49:45;3.70;85.70
6439;DHT22;3252;52.540;13.290;2023-02-28T17:51:47;3.60;87.30
6439;DHT22;3252;52.540;13.290;2023-02-28T17:53:51;3.60;89.50
6439;DHT22;3252;52.540;13.290;2023-02-28T17:55:53;3.50;87.30
6439;DHT22;3252;52.540;13.290;2023-02-28T17:57:56;3.40;85.30
6439;DHT22;3252;52.540;13.290;2023-02-28T18:00:00;3.40;84.50
6439;DHT22;3252;52.540;13.290;2023-02-28T18:02:13;3.40;86.90
6439;DHT22;3252;52.540;13.290;2023-02-28T18:04:15;3.30;90.90
6439;DHT22;3252;52.540;13.290;2023-02-28T18:06:22;3.30;91.40
6439;DHT22;3252;52.540;13.290;2023-02-28T18:08:24;3.20;92.60
6439;DHT22;3252;52.540;13.290;2023-02-28T18:10:27;3.10;92.30
6439;DHT22;3252;52.540;13.290;2023-02-28T18:12:29;3.10;92.80
6439;DHT22;3252;52.540;13.290;2023-02-28T18:14:32;3.00;93.40
6439;DHT22;3252;52.540;13.290;2023-02-28T18:16:35;2.90;93.00
6439;DHT22;3252;52.540;13.290;2023-02-28T18:18:38;2.90;93.40
6439;DHT22;3252;52.540;13.290;2023-02-28T18:20:40;2.80;92.40
6439;DHT22;3252;52.540;13.290;2023-02-28T18:22:43;2.60;92.80
6439;DHT22;3252;52.540;13.290;2023-02-28T18:24:45;2.60;93.90
6439;DHT22;3252;52.540;13.290;2023-02-28T18:26:48;2.60;94.00
6439;DHT22;3252;52.540;13.290;2023-02-28T18:28:51;2.50;94.10
6439;DHT22;3252;52.540;13.290;2023-02-28T18:30:53;2.50;93.80
6439;DHT22;3252;52.540;13.290;2023-02-28T18:33:00;2.40;93.60
6439;DHT22;3252;52.540;13.290;2023-02-28T18:35:03;2.40;94.30
6439;DHT22;3252;52.540;13.290;2023-02-28T18:37:08;2.30;94.80
6439;DHT22;3252;52.540;13.290;2023-02-28T18:39:16;2.30;95.20
6439;DHT22;3252;52.540;13.290;2023-02-28T18:41:22;2.20;95.00
6439;DHT22;3252;52.540;13.290;2023-02-28T18:43:25;2.20;94.80
6439;DHT22;3252;52.540;13.290;2023-02-28T18:45:27;2.10;95.50
6439;DHT22;3252;52.540;13.290;2023-02-28T18:47:29;2.10;95.80
6439;DHT22;3252;52.540;13.290;2023-02-28T18:49:33;2.10;96.50
6439;DHT22;3252;52.540;13.290;2023-02-28T18:51:37;2.00;96.70
6439;DHT22;3252;52.540;13.290;2023-02-28T18:53:45;2.00;96.80
6439;DHT22;3252;52.540;13.290;2023-02-28T18:55:47;2.00;95.80
6439;DHT22;3252;52.540;13.290;2023-02-28T18:57:49;2.00;95.30
6439;DHT22;3252;52.540;13.290;2023-02-28T18:59:51;1.90;95.70
6439;DHT22;3252;52.540;13.290;2023-02-28T19:01:54;1.90;96.00
6439;DHT22;3252;52.540;13.290;2023-02-28T19:03:57;1.80;96.10
6439;DHT22;3252;52.540;13.290;2023-02-28T19:06:01;1.80;96.10
6439;DHT22;3252;52.540;13.290;2023-02-28T19:08:03;1.70;96.30
6439;DHT22;3252;52.540;13.290;2023-02-28T19:10:07;1.70;96.60
6439;DHT22;3252;52.540;13.290;2023-02-28T19:12:09;1.60;96.90
6439;DHT22;3252;52.540;13.290;2023-02-28T19:14:12;1.60;96.60
6439;DHT22;3252;52.540;13.290;2023-02-28T19:16:16;1.50;96.00
6439;DHT22;3252;52.540;13.290;2023-02-28T19:18:21;1.50;96.30
6439;DHT22;3252;52.540;13.290;2023-02-28T19:20:25;1.50;96.60
6439;DHT22;3252;52.540;13.290;2023-02-28T19:22:29;1.50;96.70
6439;DHT22;3252;52.540;13.290;2023-02-28T19:24:31;1.40;96.40
6439;DHT22;3252;52.540;13.290;2023-02-28T19:26:34;1.40;96.40
6439;DHT22;3252;52.540;13.290;2023-02-28T19:28:36;1.40;96.60
6439;DHT22;3252;52.540;13.290;2023-02-28T19:30:39;1.30;96.30
6439;DHT22;3252;52.540;13.290;2023-02-28T19:32:41;1.30;96.30
6439;DHT22;3252;52.540;13.290;2023-02-28T19:34:43;1.30;96.20
6439;DHT22;3252;52.540;13.290;2023-02-28T19:36:45;1.30;96.90
6439;DHT22;3252;52.540;13.290;2023-02-28T19:38:49;1.20;96.90
6439;DHT22;3252;52.540;13.290;2023-02-28T19:40:59;1.20;97.20
6439;DHT22;3252;52.540;13.290;2023-02-28T19:43:02;1.20;97.40
6439;DHT22;3252;52.540;13.290;2023-02-28T19:45:04;1.10;97.60
6439;DHT22;3252;52.540;13.290;2023-02-28T19:47:10;1.10;97.60
6439;DHT22;3252;52.540;13.290;2023-02-28T19:49:12;1.00;97.60
6439;DHT22;3252;52.540;13.290;2023-02-28T19:51:16;1.00;97.80
6439;DHT22;3252;52.540;13.290;2023-02-28T19:53:18;1.00;98.30
6439;DHT22;3252;52.540;13.290;2023-02-28T19:55:22;0.90;97.90
6439;DHT22;3252;52.540;13.290;2023-02-28T19:57:24;0.90;98.50
6439;DHT22;3252;52.540;13.290;2023-02-28T19:59:27;0.90;98.60
6439;DHT22;3252;52.540;13.290;2023-02-28T20:01:29;0.90;98.50
6439;DHT22;3252;52.540;13.290;2023-02-28T20:03:32;0.80;98.80
6439;DHT22;3252;52.540;13.290;2023-02-28T20:05:34;0.80;98.70
6439;DHT22;3252;52.540;13.290;2023-02-28T20:07:37;0.80;99.10
6439;DHT22;3252;52.540;13.290;2023-02-28T20:09:39;0.80;99.30
6439;DHT22;3252;52.540;13.290;2023-02-28T20:11:44;0.80;99.70
6439;DHT22;3252;52.540;13.290;2023-02-28T20:13:46;0.80;99.80
6439;DHT22;3252;52.540;13.290;2023-02-28T20:15:48;0.80;99.90
6439;DHT22;3252;52.540;13.290;2023-02-28T20:17:51;0.80;99.90
6439;DHT22;3252;52.540;13.290;2023-02-28T20:19:53;0.70;99.90
6439;DHT22;3252;52.540;13.290;2023-02-28T20:21:55;0.70;99.90
6439;DHT22;3252;52.540;13.290;2023-02-28T20:23:57;0.70;99.90
6439;DHT22;3252;52.540;13.290;2023-02-28T20:26:00;0.60;99.90
6439;DHT22;3252;52.540;13.290;2023-02-28T20:28:04;0.60;99.90
6439;DHT22;3252;52.540;13.290;2023-02-28T20:30:08;0.60;99.90
6439;DHT22;3252;52.540;13.290;2023-02-28T20:32:10;0.60;99.90
6439;DHT22;3252;52.540;13.290;2023-02-28T20:34:13;0.50;99.90
6439;DHT22;3252;52.540;13.290;2023-02-28T20:36:18;0.50;99.90
6439;DHT22;3252;52.540;13.290;2023-02-28T20:38:21;0.50;99.90
6439;DHT22;3252;52.540;13.290;2023-02-28T20:40:23;0.50;99.90
6439;DHT22;3252;52.540;13.290;2023-02-28T20:42:25;0.50;99.90